createdAt,value
2018-07-14T00:00:56.711Z,99.99
2018-07-14T00:01:56.593Z,99.99
2018-07-14T00:02:56.470Z,99.99
2018-07-14T00:03:56.349Z,99.99
2018-07-14T00:04:56.227Z,99.99
2018-07-14T00:05:56.106Z,99.99
2018-07-14T00:06:55.980Z,99.99
2018-07-14T00:07:55.858Z,99.99
2018-07-14T00:08:55.737Z,99.99
2018-07-14T00:09:55.664Z,99.99
2018-07-14T00:10:55.489Z,99.99
2018-07-14T00:11:55.372Z,99.99
2018-07-14T00:12:55.247Z,99.99
2018-07-14T00:13:55.124Z,99.99
2018-07-14T00:14:54.999Z,99.99
2018-07-14T00:15:54.876Z,99.48
2018-07-14T00:16:54.758Z,99.99
2018-07-14T00:17:54.637Z,99.99
2018-07-14T00:18:54.526Z,99.80
2018-07-14T00:19:54.395Z,99.95
2018-07-14T00:20:54.268Z,99.76
2018-07-14T00:21:54.148Z,99.95
2018-07-14T00:22:54.026Z,99.43
2018-07-14T00:23:53.901Z,99.99
2018-07-14T00:24:53.779Z,99.14
2018-07-14T00:25:53.659Z,99.52
2018-07-14T00:26:53.540Z,99.57
2018-07-14T00:27:53.414Z,99.43
2018-07-14T00:28:53.287Z,99.04
2018-07-14T00:29:53.170Z,99.71
2018-07-14T00:30:53.044Z,99.99
2018-07-14T00:31:52.923Z,99.99
2018-07-14T00:32:52.802Z,99.90
2018-07-14T00:33:52.678Z,99.99
2018-07-14T00:34:52.556Z,99.80
2018-07-14T00:35:52.432Z,99.99
2018-07-14T00:36:52.312Z,99.99
2018-07-14T00:37:52.189Z,99.71
2018-07-14T00:38:52.064Z,99.99
2018-07-14T00:39:51.943Z,99.90
2018-07-14T00:40:51.820Z,99.99
2018-07-14T00:41:51.699Z,99.99
2018-07-14T00:42:51.578Z,99.99
2018-07-14T00:43:51.459Z,99.99
2018-07-14T00:44:51.332Z,99.99
2018-07-14T00:45:51.211Z,99.99
2018-07-14T00:46:51.090Z,99.99
2018-07-14T00:47:50.964Z,99.99
2018-07-14T00:48:50.844Z,99.99
2018-07-14T00:49:50.719Z,99.99
2018-07-14T00:50:50.599Z,99.99
2018-07-14T00:51:50.477Z,99.99
2018-07-14T00:52:50.355Z,99.71
2018-07-14T00:53:50.233Z,99.24
2018-07-14T00:54:50.112Z,99.14
2018-07-14T00:55:49.988Z,99.33
2018-07-14T00:56:49.868Z,99.43
2018-07-14T00:57:49.747Z,99.71
2018-07-14T00:58:49.623Z,99.43
2018-07-14T00:59:49.503Z,99.71
2018-07-14T01:00:49.380Z,99.99
2018-07-14T01:01:49.257Z,99.90
2018-07-14T01:02:49.135Z,99.62
2018-07-14T01:03:49.015Z,99.99
2018-07-14T01:04:48.896Z,99.99
2018-07-14T01:05:48.772Z,99.99
2018-07-14T01:06:48.648Z,99.99
2018-07-14T01:07:48.527Z,99.99
2018-07-14T01:08:48.404Z,99.99
2018-07-14T01:09:48.283Z,99.99
2018-07-14T01:10:48.159Z,99.99
2018-07-14T01:11:48.039Z,99.99
2018-07-14T01:12:47.915Z,99.99
2018-07-14T01:13:47.797Z,99.99
2018-07-14T01:14:47.672Z,99.99
2018-07-14T01:15:47.549Z,99.99
2018-07-14T01:16:47.428Z,99.99
2018-07-14T01:17:47.366Z,99.99
2018-07-14T01:18:47.184Z,99.99
2018-07-14T01:19:47.063Z,99.99
2018-07-14T01:20:46.940Z,99.99
2018-07-14T01:21:46.815Z,99.99
2018-07-14T01:22:46.693Z,99.99
2018-07-14T01:23:46.573Z,99.99
2018-07-14T01:24:46.449Z,99.99
2018-07-14T01:25:46.329Z,99.99
2018-07-14T01:26:46.211Z,99.99
2018-07-14T01:27:46.082Z,99.99
2018-07-14T01:28:45.960Z,99.99
2018-07-14T01:29:45.836Z,99.99
2018-07-14T01:30:45.716Z,99.99
2018-07-14T01:31:45.588Z,99.99
2018-07-14T01:32:45.471Z,99.99
2018-07-14T01:33:45.349Z,99.99
2018-07-14T01:34:45.219Z,99.99
2018-07-14T01:35:45.103Z,99.99
2018-07-14T01:36:44.978Z,99.99
2018-07-14T01:37:44.861Z,99.99
2018-07-14T01:38:44.732Z,99.99
2018-07-14T01:39:44.610Z,99.99
2018-07-14T01:40:44.563Z,99.99
2018-07-14T01:41:44.367Z,99.99
2018-07-14T01:42:44.273Z,99.99
2018-07-14T01:43:44.119Z,99.99
2018-07-14T01:44:43.997Z,99.99
2018-07-14T01:45:43.876Z,99.99
2018-07-14T01:46:43.753Z,99.99
2018-07-14T01:47:43.628Z,99.99
2018-07-14T01:48:43.509Z,99.99
2018-07-14T01:49:43.386Z,99.99
2018-07-14T01:50:43.259Z,99.99
2018-07-14T01:51:43.140Z,99.99
2018-07-14T01:52:43.019Z,99.99
2018-07-14T01:53:42.891Z,99.99
2018-07-14T01:54:42.770Z,99.99
2018-07-14T01:55:42.649Z,99.99
2018-07-14T01:56:42.524Z,99.99
2018-07-14T01:57:42.400Z,99.99
2018-07-14T01:58:42.278Z,99.99
2018-07-14T01:59:42.155Z,99.99
2018-07-14T02:00:42.033Z,99.99
2018-07-14T02:01:41.911Z,99.99
2018-07-14T02:02:41.786Z,99.99
2018-07-14T02:03:41.661Z,99.99
2018-07-14T02:04:41.540Z,99.99
2018-07-14T02:05:41.416Z,99.99
2018-07-14T02:06:41.292Z,99.99
2018-07-14T02:07:41.172Z,99.99
2018-07-14T02:08:41.050Z,99.99
2018-07-14T02:09:40.929Z,99.99
2018-07-14T02:10:40.808Z,99.99
2018-07-14T02:11:40.679Z,99.99
2018-07-14T02:12:40.558Z,99.99
2018-07-14T02:13:40.436Z,99.99
2018-07-14T02:14:40.310Z,99.99
2018-07-14T02:15:40.186Z,99.99
2018-07-14T02:16:40.064Z,99.99
2018-07-14T02:17:39.940Z,99.99
2018-07-14T02:18:39.820Z,99.99
2018-07-14T02:19:39.694Z,99.99
2018-07-14T02:20:39.574Z,99.99
2018-07-14T02:21:39.450Z,99.99
2018-07-14T02:22:39.323Z,99.99
2018-07-14T02:23:39.203Z,99.99
2018-07-14T02:24:39.081Z,99.99
2018-07-14T02:25:38.954Z,99.99
2018-07-14T02:26:38.834Z,99.99
2018-07-14T02:27:38.712Z,99.99
2018-07-14T02:28:38.591Z,99.99
2018-07-14T02:29:38.468Z,99.99
2018-07-14T02:30:38.345Z,99.99
2018-07-14T02:31:38.216Z,99.99
2018-07-14T02:32:38.092Z,99.99
2018-07-14T02:33:37.970Z,99.99
2018-07-14T02:34:37.847Z,99.99
2018-07-14T02:35:37.725Z,99.99
2018-07-14T02:36:37.603Z,99.99
2018-07-14T02:37:37.481Z,99.99
2018-07-14T02:38:37.359Z,99.99
2018-07-14T02:39:37.232Z,99.99
2018-07-14T02:40:37.109Z,99.99
2018-07-14T02:41:36.988Z,99.99
2018-07-14T02:42:36.864Z,99.99
2018-07-14T02:43:36.742Z,99.99
2018-07-14T02:44:36.616Z,99.99
2018-07-14T02:45:36.496Z,99.99
2018-07-14T02:46:36.370Z,99.99
2018-07-14T02:47:36.248Z,99.99
2018-07-14T02:48:36.124Z,99.99
2018-07-14T02:49:36.006Z,99.99
2018-07-14T02:50:35.884Z,99.99
2018-07-14T02:51:35.765Z,99.99
2018-07-14T02:52:35.632Z,99.99
2018-07-14T02:53:35.510Z,99.99
2018-07-14T02:54:35.388Z,99.99
2018-07-14T02:55:35.265Z,99.99
2018-07-14T02:56:35.139Z,99.99
2018-07-14T02:57:35.019Z,99.99
2018-07-14T02:58:34.898Z,99.99
2018-07-14T02:59:34.771Z,99.99
2018-07-14T03:00:34.651Z,99.99
2018-07-14T03:01:34.526Z,99.99
2018-07-14T03:02:34.417Z,99.99
2018-07-14T03:03:34.279Z,99.99
2018-07-14T03:04:34.162Z,99.99
2018-07-14T03:05:34.036Z,99.99
2018-07-14T03:06:33.917Z,99.99
2018-07-14T03:07:33.789Z,99.99
2018-07-14T03:08:33.667Z,99.99
2018-07-14T03:09:33.546Z,99.99
2018-07-14T03:10:33.425Z,99.99
2018-07-14T03:11:33.308Z,99.99
2018-07-14T03:12:33.176Z,99.99
2018-07-14T03:13:33.058Z,99.99
2018-07-14T03:14:32.932Z,99.99
2018-07-14T03:15:32.815Z,99.99
2018-07-14T03:16:32.685Z,99.99
2018-07-14T03:17:32.566Z,99.99
2018-07-14T03:18:32.446Z,99.99
2018-07-14T03:19:32.360Z,99.99
2018-07-14T03:20:32.195Z,99.99
2018-07-14T03:21:32.149Z,99.99
2018-07-14T03:22:31.952Z,99.99
2018-07-14T03:23:31.831Z,99.80
2018-07-14T03:24:31.706Z,99.99
2018-07-14T03:25:31.586Z,99.90
2018-07-14T03:26:31.467Z,99.99
2018-07-14T03:27:31.341Z,99.99
2018-07-14T03:28:31.231Z,99.99
2018-07-14T03:29:31.096Z,99.99
2018-07-14T03:30:30.973Z,99.99
2018-07-14T03:31:30.854Z,99.99
2018-07-14T03:32:30.727Z,99.99
2018-07-14T03:33:30.607Z,99.99
2018-07-14T03:34:30.485Z,99.99
2018-07-14T03:35:30.363Z,99.99
2018-07-14T03:36:30.239Z,99.99
2018-07-14T03:37:30.120Z,99.99
2018-07-14T03:38:30.008Z,99.99
2018-07-14T03:39:29.872Z,99.99
2018-07-14T03:40:29.768Z,99.99
2018-07-14T03:41:29.627Z,99.99
2018-07-14T03:42:29.506Z,99.99
2018-07-14T03:43:29.383Z,99.99
2018-07-14T03:44:29.262Z,99.99
2018-07-14T03:45:29.141Z,99.99
2018-07-14T03:46:29.016Z,99.99
2018-07-14T03:47:28.894Z,99.99
2018-07-14T03:48:28.783Z,99.99
2018-07-14T03:49:28.650Z,99.99
2018-07-14T03:50:28.526Z,99.99
2018-07-14T03:51:28.403Z,99.99
2018-07-14T03:52:28.282Z,99.99
2018-07-14T03:53:28.158Z,99.99
2018-07-14T03:54:28.039Z,99.99
2018-07-14T03:55:27.913Z,99.99
2018-07-14T03:56:27.790Z,99.99
2018-07-14T03:57:27.667Z,99.99
2018-07-14T03:58:27.544Z,99.99
2018-07-14T03:59:27.419Z,99.99
2018-07-14T04:00:27.303Z,99.99
2018-07-14T04:01:27.178Z,99.99
2018-07-14T04:02:27.054Z,99.99
2018-07-14T04:03:26.933Z,99.99
2018-07-14T04:04:26.811Z,99.99
2018-07-14T04:05:26.686Z,99.99
2018-07-14T04:06:26.564Z,99.99
2018-07-14T04:07:26.455Z,99.52
2018-07-14T04:08:26.317Z,99.99
2018-07-14T04:09:26.192Z,99.90
2018-07-14T04:10:26.071Z,99.33
2018-07-14T04:11:25.948Z,98.18
2018-07-14T04:12:25.827Z,98.47
2018-07-14T04:13:25.701Z,99.14
2018-07-14T04:14:25.579Z,99.52
2018-07-14T04:15:25.455Z,99.52
2018-07-14T04:16:25.335Z,99.71
2018-07-14T04:17:25.212Z,99.99
2018-07-14T04:18:25.091Z,99.99
2018-07-14T04:19:24.964Z,99.99
2018-07-14T04:20:24.842Z,99.90
2018-07-14T04:21:24.723Z,99.99
2018-07-14T04:22:24.601Z,99.99
2018-07-14T04:23:24.474Z,99.99
2018-07-14T04:24:24.351Z,99.99
2018-07-14T04:25:24.230Z,99.85
2018-07-14T04:26:24.108Z,99.85
2018-07-14T04:27:23.988Z,99.57
2018-07-14T04:28:23.861Z,99.09
2018-07-14T04:29:23.744Z,97.18
2018-07-14T04:30:23.617Z,94.79
2018-07-14T04:31:23.494Z,95.84
2018-07-14T04:32:23.377Z,97.66
2018-07-14T04:33:23.252Z,97.08
2018-07-14T04:34:23.127Z,95.46
2018-07-14T04:35:23.007Z,94.02
2018-07-14T04:36:22.885Z,94.41
2018-07-14T04:37:22.760Z,95.46
2018-07-14T04:38:22.635Z,97.18
2018-07-14T04:39:22.515Z,97.94
2018-07-14T04:40:22.402Z,98.23
2018-07-14T04:41:22.271Z,97.37
2018-07-14T04:42:22.163Z,97.28
2018-07-14T04:43:22.027Z,98.23
2018-07-14T04:44:21.904Z,98.71
2018-07-14T04:45:21.785Z,98.42
2018-07-14T04:46:21.659Z,98.33
2018-07-14T04:47:21.540Z,98.71
2018-07-14T04:48:21.415Z,98.80
2018-07-14T04:49:21.295Z,97.56
2018-07-14T04:50:21.199Z,97.18
2018-07-14T04:51:21.050Z,97.08
2018-07-14T04:52:20.929Z,97.28
2018-07-14T04:53:20.807Z,98.52
2018-07-14T04:54:20.682Z,98.99
2018-07-14T04:55:20.565Z,99.28
2018-07-14T04:56:20.441Z,98.71
2018-07-14T04:57:20.320Z,99.66
2018-07-14T04:58:20.198Z,99.95
2018-07-14T04:59:20.074Z,99.28
2018-07-14T05:00:19.954Z,99.28
2018-07-14T05:01:19.832Z,98.28
2018-07-14T05:02:19.712Z,99.38
2018-07-14T05:03:19.599Z,99.62
2018-07-14T05:04:19.463Z,99.99
2018-07-14T05:05:19.348Z,99.90
2018-07-14T05:06:19.259Z,99.99
2018-07-14T05:07:19.098Z,99.99
2018-07-14T05:08:18.974Z,99.48
2018-07-14T05:09:18.853Z,99.19
2018-07-14T05:10:18.733Z,99.48
2018-07-14T05:11:18.614Z,99.66
2018-07-14T05:12:18.490Z,98.61
2018-07-14T05:13:18.367Z,98.95
2018-07-14T05:14:18.243Z,97.80
2018-07-14T05:15:18.123Z,96.56
2018-07-14T05:16:18.002Z,95.70
2018-07-14T05:17:17.892Z,95.61
2018-07-14T05:18:17.756Z,95.70
2018-07-14T05:19:17.630Z,95.32
2018-07-14T05:20:17.510Z,95.65
2018-07-14T05:21:17.453Z,94.79
2018-07-14T05:22:17.267Z,94.70
2018-07-14T05:23:17.144Z,94.41
2018-07-14T05:24:17.022Z,93.93
2018-07-14T05:25:16.901Z,91.63
2018-07-14T05:26:16.778Z,91.39
2018-07-14T05:27:16.655Z,92.25
2018-07-14T05:28:16.551Z,91.01
2018-07-14T05:29:16.412Z,90.53
2018-07-14T05:30:16.292Z,92.58
2018-07-14T05:31:16.171Z,92.30
2018-07-14T05:32:16.048Z,91.34
2018-07-14T05:33:15.927Z,91.77
2018-07-14T05:34:15.803Z,93.21
2018-07-14T05:35:15.682Z,93.69
2018-07-14T05:36:15.589Z,94.45
2018-07-14T05:37:15.439Z,93.98
2018-07-14T05:38:15.319Z,92.68
2018-07-14T05:39:15.197Z,91.25
2018-07-14T05:40:15.077Z,90.86
2018-07-14T05:41:14.955Z,89.52
2018-07-14T05:42:14.839Z,90.00
2018-07-14T05:43:14.711Z,89.62
2018-07-14T05:44:14.596Z,88.76
2018-07-14T05:45:14.470Z,88.13
2018-07-14T05:46:14.352Z,86.60
2018-07-14T05:47:14.225Z,86.12
2018-07-14T05:48:14.105Z,84.97
2018-07-14T05:49:13.984Z,82.96
2018-07-14T05:50:13.865Z,83.15
2018-07-14T05:51:13.742Z,81.90
2018-07-14T05:52:13.618Z,81.81
2018-07-14T05:53:13.501Z,81.90
2018-07-14T05:54:13.379Z,81.23
2018-07-14T05:55:13.255Z,80.18
2018-07-14T05:56:13.135Z,78.69
2018-07-14T05:57:13.015Z,78.02
2018-07-14T05:58:12.899Z,77.34
2018-07-14T05:59:12.773Z,78.49
2018-07-14T06:00:12.651Z,78.30
2018-07-14T06:01:12.531Z,80.32
2018-07-14T06:02:12.409Z,77.25
2018-07-14T06:03:12.287Z,76.48
2018-07-14T06:04:12.168Z,78.02
2018-07-14T06:05:12.052Z,79.64
2018-07-14T06:06:11.925Z,82.42
2018-07-14T06:07:11.805Z,80.18
2018-07-14T06:08:11.684Z,80.66
2018-07-14T06:09:11.564Z,82.38
2018-07-14T06:10:11.441Z,82.09
2018-07-14T06:11:11.321Z,83.48
2018-07-14T06:12:11.203Z,83.19
2018-07-14T06:13:11.083Z,82.90
2018-07-14T06:14:11.027Z,84.00
2018-07-14T06:15:10.841Z,83.23
2018-07-14T06:16:10.722Z,82.18
2018-07-14T06:17:10.629Z,82.65
2018-07-14T06:18:10.520Z,81.60
2018-07-14T06:19:10.358Z,84.58
2018-07-14T06:20:10.240Z,83.91
2018-07-14T06:21:10.120Z,84.53
2018-07-14T06:22:10.001Z,84.53
2018-07-14T06:23:09.875Z,85.78
2018-07-14T06:24:09.755Z,86.93
2018-07-14T06:25:09.637Z,85.01
2018-07-14T06:26:09.514Z,86.25
2018-07-14T06:27:09.397Z,84.53
2018-07-14T06:28:09.274Z,83.58
2018-07-14T06:29:09.155Z,82.90
2018-07-14T06:30:09.037Z,84.63
2018-07-14T06:31:08.914Z,84.34
2018-07-14T06:32:08.864Z,83.76
2018-07-14T06:33:08.676Z,83.67
2018-07-14T06:34:08.553Z,83.00
2018-07-14T06:35:08.435Z,84.34
2018-07-14T06:36:08.314Z,85.74
2018-07-14T06:37:08.196Z,84.30
2018-07-14T06:38:08.086Z,83.53
2018-07-14T06:39:07.952Z,84.97
2018-07-14T06:40:07.833Z,86.79
2018-07-14T06:41:07.712Z,84.39
2018-07-14T06:42:07.589Z,81.75
2018-07-14T06:43:07.521Z,81.95
2018-07-14T06:44:07.348Z,83.09
2018-07-14T06:45:07.229Z,82.90
2018-07-14T06:46:07.109Z,81.66
2018-07-14T06:47:06.989Z,82.04
2018-07-14T06:48:06.866Z,81.75
2018-07-14T06:49:06.748Z,81.08
2018-07-14T06:50:06.631Z,82.04
2018-07-14T06:51:06.504Z,83.09
2018-07-14T06:52:06.386Z,82.32
2018-07-14T06:53:06.273Z,81.46
2018-07-14T06:54:06.145Z,80.22
2018-07-14T06:55:06.023Z,80.18
2018-07-14T06:56:05.901Z,81.85
2018-07-14T06:57:05.784Z,84.44
2018-07-14T06:58:05.662Z,86.64
2018-07-14T06:59:05.554Z,88.75
2018-07-14T07:00:05.422Z,87.31
2018-07-14T07:01:05.300Z,87.21
2018-07-14T07:02:05.181Z,88.56
2018-07-14T07:03:05.060Z,85.21
2018-07-14T07:04:04.938Z,88.12
2018-07-14T07:05:04.819Z,87.16
2018-07-14T07:06:04.697Z,81.89
2018-07-14T07:07:04.577Z,78.05
2018-07-14T07:08:04.456Z,77.38
2018-07-14T07:09:04.336Z,79.72
2018-07-14T07:10:04.214Z,75.79
2018-07-14T07:11:04.097Z,78.38
2018-07-14T07:12:03.981Z,82.26
2018-07-14T07:13:03.852Z,74.48
2018-07-14T07:14:03.734Z,72.69
2018-07-14T07:15:03.616Z,73.46
2018-07-14T07:16:03.514Z,76.06
2018-07-14T07:17:03.379Z,73.85
2018-07-14T07:18:03.251Z,72.89
2018-07-14T07:19:03.133Z,73.18
2018-07-14T07:20:03.014Z,72.16
2018-07-14T07:21:02.896Z,75.42
2018-07-14T07:22:02.772Z,73.98
2018-07-14T07:23:02.654Z,72.92
2018-07-14T07:24:02.538Z,73.11
2018-07-14T07:25:02.415Z,76.52
2018-07-14T07:26:02.294Z,72.67
2018-07-14T07:27:02.175Z,72.67
2018-07-14T07:28:02.057Z,70.37
2018-07-14T07:28:47.603Z,70.94
2018-07-14T07:29:47.406Z,71.04
2018-07-14T07:31:40.172Z,72.86
2018-07-14T07:32:40.042Z,69.60
2018-07-14T07:34:33.738Z,70.90
2018-07-14T07:35:33.437Z,71.19
2018-07-14T07:37:26.102Z,72.44
2018-07-14T07:38:25.978Z,70.75
2018-07-14T07:40:18.774Z,72.23
2018-07-14T07:41:18.528Z,70.40
2018-07-14T07:43:11.224Z,68.67
2018-07-14T07:44:11.066Z,68.48
2018-07-14T07:46:03.795Z,69.06
2018-07-14T07:47:03.610Z,68.86
2018-07-14T07:48:56.285Z,68.83
2018-07-14T07:49:56.157Z,69.69
2018-07-14T07:51:48.865Z,73.18
2018-07-14T07:52:48.699Z,74.29
2018-07-14T07:54:41.377Z,75.87
2018-07-14T07:55:41.248Z,72.73
2018-07-14T07:57:33.960Z,67.07
2018-07-14T07:58:33.792Z,67.77
2018-07-14T08:00:26.475Z,69.79
2018-07-14T08:01:26.347Z,67.99
2018-07-14T08:03:19.073Z,68.44
2018-07-14T08:04:18.890Z,69.50
2018-07-14T08:06:11.576Z,69.18
2018-07-14T08:07:11.434Z,70.43
2018-07-14T08:09:04.145Z,72.64
2018-07-14T08:10:03.982Z,70.62
2018-07-14T08:12:08.594Z,70.84
2018-07-14T08:13:08.493Z,69.95
2018-07-14T08:15:01.168Z,66.39
2018-07-14T08:16:01.056Z,66.49
2018-07-14T08:17:53.682Z,65.85
2018-07-14T08:18:53.555Z,65.37
2018-07-14T08:20:47.113Z,64.59
2018-07-14T08:21:46.950Z,63.44
2018-07-14T08:23:39.695Z,63.54
2018-07-14T08:24:39.501Z,65.30
2018-07-14T08:26:32.299Z,64.63
2018-07-14T08:27:32.052Z,64.63
2018-07-14T08:29:25.080Z,62.77
2018-07-14T08:30:24.891Z,63.31
2018-07-14T08:32:17.674Z,66.46
2018-07-14T08:33:17.541Z,68.35
2018-07-14T08:35:10.161Z,69.31
2018-07-14T08:36:10.449Z,69.12
2018-07-14T08:38:02.786Z,69.50
2018-07-14T08:39:02.584Z,68.21
2018-07-14T08:40:55.624Z,71.33
2018-07-14T08:41:55.135Z,68.79
2018-07-14T08:42:55.020Z,65.14
2018-07-14T08:43:54.899Z,68.25
2018-07-14T08:44:54.784Z,73.06
2018-07-14T08:45:54.662Z,71.75
2018-07-14T08:46:54.545Z,70.30
2018-07-14T08:47:54.429Z,68.29
2018-07-14T08:48:54.309Z,69.57
2018-07-14T08:49:55.012Z,69.09
2018-07-14T08:50:54.076Z,69.09
2018-07-14T08:51:53.955Z,68.51
2018-07-14T08:52:53.837Z,68.13
2018-07-14T08:53:53.720Z,66.52
2018-07-14T08:54:53.602Z,66.04
2018-07-14T08:55:53.484Z,66.62
2018-07-14T08:56:53.363Z,65.72
2018-07-14T08:57:53.247Z,65.66
2018-07-14T08:58:53.130Z,65.43
2018-07-14T08:59:53.014Z,66.24
2018-07-14T09:00:52.896Z,66.14
2018-07-14T09:01:52.777Z,66.71
2018-07-14T09:02:52.658Z,66.33
2018-07-14T09:03:52.546Z,66.52
2018-07-14T09:04:52.422Z,64.98
2018-07-14T09:05:52.307Z,64.56
2018-07-14T09:06:52.188Z,66.14
2018-07-14T09:07:52.068Z,68.16
2018-07-14T09:08:51.950Z,65.94
2018-07-14T09:09:51.834Z,64.82
2018-07-14T09:10:52.398Z,64.63
2018-07-14T09:11:51.596Z,64.82
2018-07-14T09:12:51.482Z,65.53
2018-07-14T09:13:51.364Z,64.56
2018-07-14T09:14:51.243Z,62.83
2018-07-14T09:15:51.124Z,62.15
2018-07-14T09:16:51.012Z,62.96
2018-07-14T09:17:50.892Z,62.63
2018-07-14T09:18:50.776Z,64.50
2018-07-14T09:19:51.582Z,64.24
2018-07-14T09:20:57.669Z,61.83
2018-07-14T09:22:43.255Z,59.16
2018-07-14T09:23:43.085Z,60.41
2018-07-14T09:25:35.767Z,61.19
2018-07-14T09:26:35.863Z,58.84
2018-07-14T09:28:28.395Z,60.64
2018-07-14T09:29:28.225Z,59.58
2018-07-14T09:31:20.903Z,59.36
2018-07-14T09:32:20.780Z,59.48
2018-07-14T09:34:13.554Z,56.91
2018-07-14T09:35:13.391Z,55.68
2018-07-14T09:37:06.083Z,56.29
2018-07-14T09:38:06.054Z,54.36
2018-07-14T09:39:58.869Z,53.97
2018-07-14T09:40:58.512Z,55.16
2018-07-14T09:42:52.042Z,53.93
2018-07-14T09:43:51.972Z,53.45
2018-07-14T09:45:44.637Z,52.05
2018-07-14T09:46:44.483Z,50.40
2018-07-14T09:48:37.158Z,47.65
2018-07-14T09:49:37.286Z,49.00
2018-07-14T09:51:29.767Z,49.19
2018-07-14T09:52:29.599Z,49.39
2018-07-14T09:54:22.284Z,49.19
2018-07-14T09:55:22.250Z,50.55
2018-07-14T09:57:15.724Z,50.38
2018-07-14T09:58:15.561Z,49.32
2018-07-14T09:59:15.451Z,47.94
2018-07-14T10:00:15.443Z,48.13
2018-07-14T10:01:15.214Z,47.94
2018-07-14T10:02:15.103Z,48.61
2018-07-14T10:03:15.008Z,47.72
2018-07-14T10:04:15.154Z,49.27
2018-07-14T10:05:14.765Z,49.32
2018-07-14T10:06:14.703Z,50.40
2018-07-14T10:07:14.521Z,49.37
2018-07-14T10:08:14.404Z,50.52
2018-07-14T10:09:14.291Z,50.93
2018-07-14T10:10:14.180Z,47.74
2018-07-14T10:11:14.058Z,47.86
2018-07-14T10:12:13.947Z,49.15
2018-07-14T10:13:13.883Z,47.31
2018-07-14T10:14:13.713Z,48.57
2018-07-14T10:15:13.597Z,49.34
2018-07-14T10:16:13.483Z,48.59
2018-07-14T10:17:13.368Z,47.21
2018-07-14T10:18:13.253Z,47.21
2018-07-14T10:19:13.137Z,46.92
2018-07-14T10:20:13.021Z,48.30
2018-07-14T10:21:12.927Z,50.24
2018-07-14T10:22:12.793Z,48.06
2018-07-14T10:23:12.678Z,49.65
2018-07-14T10:24:12.564Z,49.95
2018-07-14T10:25:12.581Z,52.23
2018-07-14T10:26:12.335Z,52.62
2018-07-14T10:27:12.981Z,52.28
2018-07-14T10:28:12.102Z,53.51
2018-07-14T10:29:11.985Z,54.18
2018-07-14T10:30:11.872Z,55.15
2018-07-14T10:31:11.754Z,55.51
2018-07-14T10:32:11.807Z,56.27
2018-07-14T10:33:18.655Z,57.24
2018-07-14T10:35:04.239Z,57.79
2018-07-14T10:36:04.076Z,57.79
2018-07-14T10:37:56.764Z,57.98
2018-07-14T10:38:56.638Z,58.56
2018-07-14T10:40:49.351Z,59.36
2018-07-14T10:41:49.190Z,58.47
2018-07-14T10:43:41.871Z,59.14
2018-07-14T10:44:42.736Z,60.00
2018-07-14T10:46:34.565Z,59.33
2018-07-14T10:47:34.300Z,59.23
2018-07-14T10:49:26.989Z,59.43
2018-07-14T10:50:26.862Z,60.58
2018-07-14T10:52:19.584Z,61.10
2018-07-14T10:53:19.427Z,59.84
2018-07-14T10:55:12.129Z,59.45
2018-07-14T10:56:11.978Z,59.97
2018-07-14T10:58:04.733Z,58.84
2018-07-14T10:59:04.531Z,58.84
2018-07-14T11:00:57.212Z,60.64
2018-07-14T11:01:57.086Z,61.22
2018-07-14T11:03:49.801Z,60.64
2018-07-14T11:04:49.638Z,60.38
2018-07-14T11:06:42.321Z,60.19
2018-07-14T11:07:42.198Z,60.19
2018-07-14T11:09:34.907Z,59.74
2018-07-14T11:10:34.754Z,58.97
2018-07-14T11:12:28.295Z,57.49
2018-07-14T11:13:28.151Z,58.17
2018-07-14T11:15:22.071Z,58.52
2018-07-14T11:16:21.866Z,57.17
2018-07-14T11:18:14.547Z,58.65
2018-07-14T11:19:14.425Z,59.32
2018-07-14T11:21:07.135Z,58.48
2018-07-14T11:22:06.974Z,57.32
2018-07-14T11:23:59.683Z,56.62
2018-07-14T11:24:59.560Z,57.14
2018-07-14T11:26:52.273Z,56.71
2018-07-14T11:27:52.114Z,56.57
2018-07-14T11:29:44.794Z,53.26
2018-07-14T11:30:44.678Z,52.78
2018-07-14T11:31:44.555Z,50.82
2018-07-14T11:32:44.442Z,51.98
2018-07-14T11:33:44.419Z,51.01
2018-07-14T11:34:44.209Z,50.55
2018-07-14T11:35:44.099Z,49.68
2018-07-14T11:36:43.978Z,49.70
2018-07-14T11:37:43.909Z,49.07
2018-07-14T11:38:43.751Z,47.02
2018-07-14T11:39:43.636Z,46.60
2018-07-14T11:40:43.521Z,47.84
2018-07-14T11:41:43.409Z,49.10
2018-07-14T11:42:43.298Z,49.46
2018-07-14T11:43:43.178Z,50.50
2018-07-14T11:44:43.065Z,51.44
2018-07-14T11:45:42.949Z,50.48
2018-07-14T11:46:42.841Z,52.22
2018-07-14T11:47:42.779Z,51.81
2018-07-14T11:48:42.609Z,50.45
2018-07-14T11:49:42.494Z,49.05
2018-07-14T11:50:42.381Z,49.63
2018-07-14T11:51:42.266Z,50.31
2018-07-14T11:52:42.151Z,49.85
2018-07-14T11:53:42.036Z,49.54
2018-07-14T11:54:41.929Z,49.10
2018-07-14T11:55:41.805Z,47.09
2018-07-14T11:56:41.693Z,46.72
2018-07-14T11:57:41.584Z,46.07
2018-07-14T11:58:41.462Z,44.73
2018-07-14T11:59:41.351Z,44.46
2018-07-14T12:00:41.233Z,44.15
2018-07-14T22:12:28.897Z,31.47
2018-07-14T22:13:28.719Z,29.47
2018-07-14T22:15:21.371Z,31.16
2018-07-14T22:16:21.237Z,30.60
2018-07-14T22:18:13.936Z,30.60
2018-07-14T22:19:13.769Z,31.16
2018-07-14T22:21:06.425Z,29.36
2018-07-14T22:22:06.290Z,28.50
2018-07-14T22:23:58.991Z,28.31
2018-07-14T22:24:58.817Z,28.50
2018-07-14T22:26:51.476Z,29.16
2018-07-14T22:27:51.344Z,29.36
2018-07-14T22:29:44.043Z,28.21
2018-07-14T22:30:43.873Z,28.40
2018-07-14T22:32:37.384Z,27.07
2018-07-14T22:33:37.251Z,26.88
2018-07-14T22:35:29.956Z,27.07
2018-07-14T22:36:29.780Z,27.64
2018-07-14T22:38:23.293Z,26.97
2018-07-14T22:39:23.160Z,26.40
2018-07-14T22:41:15.860Z,28.12
2018-07-14T22:42:15.697Z,28.69
2018-07-14T22:44:08.361Z,27.73
2018-07-14T22:45:08.226Z,26.88
2018-07-14T22:47:00.930Z,27.45
2018-07-14T22:48:00.757Z,28.12
2018-07-14T22:49:00.634Z,29.07
2018-07-14T22:50:00.505Z,29.55
2018-07-14T22:51:00.384Z,28.50
2018-07-14T22:52:00.259Z,28.12
2018-07-14T22:53:00.139Z,28.02
2018-07-14T22:54:00.019Z,28.21
2018-07-14T22:54:59.886Z,27.83
2018-07-14T22:55:59.763Z,27.16
2018-07-14T22:56:59.643Z,26.97
2018-07-14T22:57:59.513Z,28.50
2018-07-14T22:58:59.389Z,28.97
2018-07-14T22:59:59.268Z,29.26
2018-07-14T23:00:59.154Z,29.26
2018-07-14T23:01:59.018Z,29.26
2018-07-14T23:02:58.897Z,29.45
2018-07-14T23:03:58.772Z,29.74
2018-07-14T23:04:58.647Z,29.45
2018-07-14T23:05:58.523Z,28.31
2018-07-14T23:06:58.397Z,28.40
2018-07-14T23:07:58.275Z,27.92
2018-07-14T23:08:58.154Z,27.07
2018-07-14T23:09:58.031Z,26.59
2018-07-14T23:10:57.902Z,27.26
2018-07-14T23:11:57.779Z,26.97
2018-07-14T23:12:57.660Z,27.16
2018-07-14T23:13:57.533Z,26.40
2018-07-14T23:14:57.410Z,26.31
2018-07-14T23:15:57.286Z,26.02
2018-07-14T23:16:57.159Z,26.22
2018-07-14T23:17:57.038Z,27.26
2018-07-14T23:18:56.915Z,29.74
2018-07-14T23:19:56.789Z,31.55
2018-07-14T23:20:56.668Z,32.88
2018-07-14T23:21:56.543Z,31.16
2018-07-14T23:22:56.419Z,29.36
2018-07-14T23:23:56.297Z,28.40
2018-07-14T23:24:56.170Z,27.36
2018-07-14T23:25:56.050Z,27.36
2018-07-14T23:26:55.921Z,27.92
2018-07-14T23:27:55.800Z,27.45
2018-07-14T23:28:55.678Z,27.64
2018-07-14T23:29:55.554Z,28.31
2018-07-14T23:30:55.430Z,29.45
2018-07-14T23:31:55.304Z,29.45
2018-07-14T23:32:55.182Z,29.45
2018-07-14T23:33:55.058Z,29.45
2018-07-14T23:34:54.934Z,29.45
2018-07-14T23:35:54.810Z,27.83
2018-07-14T23:36:54.685Z,27.45
2018-07-14T23:37:54.561Z,27.26
2018-07-14T23:38:54.437Z,26.68
2018-07-14T23:39:54.313Z,27.16
2018-07-14T23:40:54.190Z,26.68
2018-07-14T23:41:54.066Z,27.83
2018-07-14T23:42:53.941Z,28.69
2018-07-14T23:43:53.820Z,28.21
2018-07-14T23:44:53.694Z,29.36
2018-07-14T23:45:53.569Z,30.02
2018-07-14T23:46:53.449Z,30.60
2018-07-14T23:47:53.320Z,29.36
2018-07-14T23:48:53.198Z,29.26
2018-07-14T23:49:53.075Z,28.12
2018-07-14T23:50:52.950Z,28.21
2018-07-14T23:51:52.824Z,29.64
2018-07-14T23:52:52.702Z,30.79
2018-07-14T23:53:52.576Z,29.64
2018-07-14T23:54:52.452Z,29.36
2018-07-14T23:55:52.331Z,29.16
2018-07-14T23:56:52.206Z,28.40
2018-07-14T23:57:52.083Z,29.16
2018-07-14T23:58:51.963Z,29.55
2018-07-14T23:59:51.837Z,28.31
